createdAt,value
2022-11-24T00:01:06.397Z,98.64
2022-11-24T00:03:33.471Z,98.51
2022-11-24T00:06:11.217Z,98.86
2022-11-24T00:08:39.937Z,98.79
2022-11-24T00:11:11.781Z,98.85
2022-11-24T00:13:39.361Z,98.96
2022-11-24T00:16:17.082Z,99.14
2022-11-24T00:18:46.055Z,98.75
2022-11-24T00:21:13.112Z,98.81
2022-11-24T00:23:39.741Z,98.84
2022-11-24T00:26:15.140Z,99.09
2022-11-24T00:28:42.781Z,99.03
2022-11-24T00:31:27.079Z,98.65
2022-11-24T00:33:56.379Z,98.46
2022-11-24T00:36:24.805Z,98.50
2022-11-24T00:38:55.771Z,98.25
2022-11-24T00:41:23.470Z,98.08
2022-11-24T00:43:50.183Z,98.18
2022-11-24T00:46:17.015Z,98.15
2022-11-24T00:48:43.799Z,98.27
2022-11-24T00:51:12.560Z,98.08
2022-11-24T00:53:39.112Z,97.77
2022-11-24T00:56:05.802Z,97.79
2022-11-24T00:58:33.050Z,97.90
2022-11-24T01:01:15.537Z,97.94
2022-11-24T01:03:43.298Z,97.74
2022-11-24T01:06:13.013Z,97.57
2022-11-24T01:08:40.285Z,97.61
2022-11-24T01:11:19.065Z,97.64
2022-11-24T01:13:49.149Z,97.59
2022-11-24T01:16:21.931Z,97.58
2022-11-24T01:18:48.891Z,97.21
2022-11-24T01:21:16.250Z,97.25
2022-11-24T01:23:42.841Z,97.22
2022-11-24T01:26:12.528Z,97.03
2022-11-24T01:28:44.856Z,97.18
2022-11-24T01:31:13.919Z,97.35
2022-11-24T01:33:40.435Z,97.15
2022-11-24T01:36:06.968Z,97.28
2022-11-24T01:38:33.629Z,97.16
2022-11-24T01:41:12.527Z,97.11
2022-11-24T01:43:39.529Z,97.33
2022-11-24T01:46:17.679Z,96.95
2022-11-24T01:48:49.048Z,97.00
2022-11-24T01:51:27.740Z,96.84
2022-11-24T01:54:00.922Z,96.83
2022-11-24T01:56:30.292Z,96.64
2022-11-24T01:59:00.321Z,96.65
2022-11-24T02:01:27.765Z,96.23
2022-11-24T02:03:54.732Z,96.01
2022-11-24T02:06:29.051Z,96.02
2022-11-24T02:09:13.589Z,96.53
2022-11-24T02:11:41.687Z,96.24
2022-11-24T02:14:11.498Z,96.02
2022-11-24T02:16:41.568Z,96.00
2022-11-24T02:19:22.729Z,96.18
2022-11-24T02:21:49.165Z,96.52
2022-11-24T02:24:25.398Z,96.52
2022-11-24T02:26:54.451Z,96.36
2022-11-24T02:29:21.101Z,96.63
2022-11-24T02:31:55.141Z,96.29
2022-11-24T02:34:21.559Z,96.14
2022-11-24T02:36:48.005Z,96.08
2022-11-24T02:39:15.349Z,95.68
2022-11-24T02:41:46.637Z,95.98
2022-11-24T02:44:15.483Z,96.17
2022-11-24T02:46:42.112Z,96.14
2022-11-24T02:49:08.602Z,95.65
2022-11-24T02:51:35.056Z,95.70
2022-11-24T02:54:01.556Z,95.21
2022-11-24T02:56:27.983Z,95.15
2022-11-24T02:58:54.485Z,95.11
2022-11-24T03:01:20.998Z,95.01
2022-11-24T03:03:47.525Z,94.92
2022-11-24T03:06:13.982Z,94.96
2022-11-24T03:08:40.401Z,94.63
2022-11-24T03:11:06.805Z,94.53
2022-11-24T03:13:33.502Z,94.24
2022-11-24T03:15:59.988Z,94.38
2022-11-24T03:18:26.481Z,94.36
2022-11-24T03:20:52.871Z,94.65
2022-11-24T03:23:19.324Z,94.49
2022-11-24T03:25:45.729Z,94.41
2022-11-24T03:28:12.142Z,94.60
2022-11-24T03:30:38.551Z,94.21
2022-11-24T03:33:07.147Z,94.14
2022-11-24T03:35:33.601Z,94.61
2022-11-24T03:38:00.081Z,94.36
2022-11-24T03:40:26.523Z,94.48
2022-11-24T03:42:52.955Z,93.96
2022-11-24T03:48:07.536Z,94.00
2022-11-24T03:50:33.928Z,94.02
2022-11-24T03:53:00.350Z,94.18
2022-11-24T03:55:26.778Z,94.46
2022-11-24T03:57:53.303Z,94.69
2022-11-24T04:00:19.852Z,94.29
2022-11-24T04:02:48.128Z,94.58
2022-11-24T04:05:15.007Z,94.54
2022-11-24T04:07:41.929Z,94.61
2022-11-24T04:10:08.952Z,94.72
2022-11-24T04:12:44.277Z,94.66
2022-11-24T04:15:20.902Z,94.31
2022-11-24T04:17:49.544Z,94.81
2022-11-24T04:20:17.323Z,94.99
2022-11-24T04:22:44.032Z,95.25
2022-11-24T04:25:10.726Z,95.48
2022-11-24T04:27:37.890Z,95.46
2022-11-24T04:30:07.152Z,95.49
2022-11-24T04:32:33.535Z,95.53
2022-11-24T04:34:59.984Z,95.59
2022-11-24T04:37:26.498Z,95.82
2022-11-24T04:39:54.929Z,95.59
2022-11-24T04:42:21.581Z,95.87
2022-11-24T04:44:48.035Z,95.91
2022-11-24T04:47:20.339Z,96.24
2022-11-24T04:49:48.058Z,96.00
2022-11-24T04:52:14.991Z,96.22
2022-11-24T04:54:41.496Z,96.30
2022-11-24T04:57:09.401Z,96.20
2022-11-24T04:59:35.808Z,96.11
2022-11-24T05:02:02.217Z,96.09
2022-11-24T05:04:28.738Z,96.15
2022-11-24T05:06:55.164Z,96.37
2022-11-24T05:09:21.908Z,96.81
2022-11-24T05:11:48.387Z,97.03
2022-11-24T05:14:14.836Z,96.84
2022-11-24T05:16:41.314Z,97.06
2022-11-24T05:19:08.416Z,97.05
2022-11-24T05:21:34.916Z,97.19
2022-11-24T05:24:01.405Z,97.39
2022-11-24T05:26:27.831Z,97.19
2022-11-24T05:28:54.304Z,96.91
2022-11-24T05:31:20.867Z,97.13
2022-11-24T05:33:47.452Z,96.32
2022-11-24T05:36:33.432Z,96.40
2022-11-24T05:39:00.405Z,97.01
2022-11-24T05:41:26.921Z,96.97
2022-11-24T05:43:53.376Z,96.94
2022-11-24T05:46:19.896Z,96.82
2022-11-24T05:48:46.374Z,96.86
2022-11-24T05:51:12.866Z,96.75
2022-11-24T05:53:39.281Z,96.77
2022-11-24T05:56:06.115Z,96.74
2022-11-24T05:58:32.524Z,97.03
2022-11-24T06:00:58.955Z,97.22
2022-11-24T06:03:25.355Z,97.48
2022-11-24T06:05:51.800Z,97.66
2022-11-24T06:08:18.237Z,97.57
2022-11-24T06:10:44.681Z,97.45
2022-11-24T06:13:11.143Z,97.71
2022-11-24T06:15:38.584Z,97.73
2022-11-24T06:18:05.124Z,98.07
2022-11-24T06:20:33.048Z,98.28
2022-11-24T06:23:00.663Z,98.20
2022-11-24T06:25:28.312Z,98.53
2022-11-24T06:27:55.021Z,98.51
2022-11-24T06:30:21.481Z,98.70
2022-11-24T06:32:49.903Z,98.65
2022-11-24T06:35:16.708Z,99.01
2022-11-24T06:37:43.168Z,98.98
2022-11-24T06:40:10.139Z,99.09
2022-11-24T06:42:37.261Z,99.02
2022-11-24T06:45:08.719Z,99.08
2022-11-24T06:47:36.024Z,99.07
2022-11-24T06:50:02.735Z,99.05
2022-11-24T06:52:29.275Z,99.31
2022-11-24T06:54:55.939Z,99.33
2022-11-24T06:57:22.359Z,99.37
2022-11-24T06:59:48.969Z,99.45
2022-11-24T07:02:15.445Z,99.45
2022-11-24T07:04:41.951Z,99.63
2022-11-24T07:07:08.733Z,99.73
2022-11-24T07:09:35.224Z,99.80
2022-11-24T07:12:02.331Z,99.86
2022-11-24T07:14:28.860Z,99.89
2022-11-24T07:16:55.385Z,99.90
2022-11-24T07:19:25.068Z,99.89
2022-11-24T07:21:51.828Z,99.84
2022-11-24T07:24:18.752Z,99.94
2022-11-24T07:26:45.328Z,99.88
2022-11-24T07:29:11.808Z,99.85
2022-11-24T07:31:38.339Z,99.74
2022-11-24T07:34:05.096Z,99.96
2022-11-24T07:36:31.597Z,99.96
2022-11-24T07:38:58.148Z,99.98
2022-11-24T07:41:24.609Z,100.00
2022-11-24T07:43:51.714Z,99.97
2022-11-24T07:46:19.540Z,99.98
2022-11-24T07:48:46.344Z,99.98
2022-11-24T07:51:12.956Z,99.88
2022-11-24T07:53:39.720Z,100.00
2022-11-24T07:56:06.807Z,100.00
2022-11-24T07:58:36.556Z,100.00
2022-11-24T08:01:17.783Z,100.00
2022-11-24T08:03:45.686Z,100.00
2022-11-24T08:06:25.136Z,100.00
2022-11-24T08:08:54.557Z,100.00
2022-11-24T08:11:21.126Z,100.00
2022-11-24T08:13:47.651Z,100.00
2022-11-24T08:16:17.481Z,100.00
2022-11-24T08:18:48.772Z,100.00
2022-11-24T08:21:15.292Z,100.00
2022-11-24T08:23:42.392Z,100.00
2022-11-24T08:26:13.786Z,100.00
2022-11-24T08:28:40.475Z,100.00
2022-11-24T08:31:12.556Z,100.00
2022-11-24T08:33:39.837Z,100.00
2022-11-24T08:36:14.027Z,100.00
2022-11-24T08:38:41.446Z,100.00
2022-11-24T08:41:14.128Z,100.00
2022-11-24T08:43:41.334Z,100.00
2022-11-24T08:46:13.815Z,100.00
2022-11-24T08:48:41.439Z,100.00
2022-11-24T08:51:13.298Z,100.00
2022-11-24T08:53:41.043Z,100.00
2022-11-24T08:56:09.529Z,100.00
2022-11-24T08:58:36.851Z,100.00
2022-11-24T09:01:15.422Z,100.00
2022-11-24T09:03:48.610Z,100.00
2022-11-24T09:06:23.466Z,100.00
2022-11-24T09:08:50.723Z,100.00
2022-11-24T09:11:17.415Z,100.00
2022-11-24T09:13:44.613Z,100.00
2022-11-24T09:16:14.602Z,100.00
2022-11-24T09:18:41.831Z,100.00
2022-11-24T09:21:20.555Z,100.00
2022-11-24T09:23:49.188Z,100.00
2022-11-24T09:26:27.895Z,100.00
2022-11-24T09:28:57.908Z,100.00
2022-11-24T09:31:27.344Z,100.00
2022-11-24T09:33:55.088Z,100.00
2022-11-24T09:36:22.489Z,100.00
2022-11-24T09:38:49.340Z,100.00
2022-11-24T09:41:39.360Z,100.00
2022-11-24T09:44:25.576Z,100.00
2022-11-24T09:47:15.305Z,100.00
2022-11-24T09:49:51.786Z,100.00
2022-11-24T09:52:37.500Z,100.00
2022-11-24T09:55:13.147Z,100.00
2022-11-24T09:57:43.868Z,100.00
2022-11-24T10:00:13.307Z,100.00
2022-11-24T10:02:39.937Z,100.00
2022-11-24T10:05:07.060Z,99.95
2022-11-24T10:07:40.080Z,99.67
2022-11-24T10:10:25.021Z,99.88
2022-11-24T10:13:00.777Z,100.00
2022-11-24T10:16:01.411Z,100.00
2022-11-24T10:18:46.292Z,99.17
2022-11-24T10:21:51.544Z,99.29
2022-11-24T10:24:35.751Z,99.36
2022-11-24T10:27:26.436Z,98.41
2022-11-24T10:29:52.993Z,98.74
2022-11-24T10:32:25.593Z,97.27
2022-11-24T10:34:54.127Z,97.94
2022-11-24T10:37:30.668Z,98.05
2022-11-24T10:40:04.035Z,96.93
2022-11-24T10:42:37.977Z,96.97
2022-11-24T10:45:15.151Z,96.76
2022-11-24T10:47:43.030Z,96.57
2022-11-24T10:50:26.241Z,97.21
2022-11-24T10:53:16.213Z,97.01
2022-11-24T10:55:55.052Z,96.05
2022-11-24T10:58:38.614Z,95.69
2022-11-24T11:01:14.234Z,95.49
2022-11-24T11:03:49.652Z,97.45
2022-11-24T11:06:23.028Z,97.00
2022-11-24T11:08:49.884Z,96.39
2022-11-24T11:11:19.674Z,95.76
2022-11-24T11:13:58.161Z,96.00
2022-11-24T11:16:39.104Z,96.12
2022-11-24T11:19:58.511Z,95.67
2022-11-24T11:22:32.883Z,96.20
2022-11-24T11:25:32.056Z,95.96
2022-11-24T11:28:18.581Z,95.71
2022-11-24T11:34:04.659Z,95.68
2022-11-24T11:36:33.111Z,94.37
2022-11-24T11:38:59.816Z,94.20
2022-11-24T11:41:32.336Z,93.92
2022-11-24T11:44:13.563Z,94.29
2022-11-24T11:46:40.179Z,95.00
2022-11-24T11:49:12.125Z,94.85
2022-11-24T11:51:44.386Z,93.08
2022-11-24T11:54:26.920Z,94.00
2022-11-24T11:57:03.370Z,92.00
2022-11-24T11:59:49.044Z,91.54
2022-11-24T12:02:39.850Z,92.16
2022-11-24T12:05:24.911Z,92.43
2022-11-24T12:08:10.897Z,92.09
2022-11-24T12:11:10.692Z,92.44
2022-11-24T12:13:51.438Z,91.58
2022-11-24T12:16:42.596Z,90.39
2022-11-24T12:19:24.206Z,90.51
2022-11-24T12:21:59.836Z,90.46
2022-11-24T12:24:55.416Z,91.08
2022-11-24T12:27:39.741Z,90.66
2022-11-24T12:30:15.015Z,90.06
2022-11-24T12:33:00.252Z,89.48
2022-11-24T12:35:44.180Z,89.16
2022-11-24T12:38:25.782Z,89.01
2022-11-24T12:41:25.519Z,88.53
2022-11-24T12:43:52.939Z,89.26
2022-11-24T12:46:19.417Z,88.83
2022-11-24T12:49:01.130Z,87.39
2022-11-24T12:51:32.876Z,87.67
2022-11-24T12:54:03.305Z,89.19
2022-11-24T12:56:57.710Z,88.14
2022-11-24T12:59:45.580Z,86.39
2022-11-24T13:02:18.029Z,87.04
2022-11-24T13:04:55.676Z,87.58
2022-11-24T13:07:37.995Z,87.60
2022-11-24T13:10:40.113Z,87.69
2022-11-24T13:13:11.936Z,86.82
2022-11-24T13:19:09.551Z,85.93
2022-11-24T13:21:50.803Z,85.68
2022-11-24T13:24:18.133Z,84.78
2022-11-24T13:26:50.946Z,84.98
2022-11-24T13:29:33.189Z,84.11
2022-11-24T13:32:02.672Z,83.59
2022-11-24T13:34:41.218Z,84.15
2022-11-24T13:37:29.095Z,83.87
2022-11-24T13:40:07.886Z,83.52
2022-11-24T13:43:03.200Z,83.63
2022-11-24T13:45:35.700Z,83.70
2022-11-24T13:48:02.146Z,82.58
2022-11-24T13:50:50.445Z,83.18
2022-11-24T13:53:17.057Z,82.30
2022-11-24T13:55:55.813Z,82.51
2022-11-24T13:58:29.696Z,81.37
2022-11-24T14:01:25.622Z,81.96
2022-11-24T14:04:28.791Z,80.69
2022-11-24T14:06:52.256Z,81.83
2022-11-24T14:09:33.000Z,80.54
2022-11-24T14:12:02.523Z,79.82
2022-11-24T14:14:29.114Z,77.93
2022-11-24T14:17:28.494Z,78.51
2022-11-24T14:19:57.148Z,78.54
2022-11-24T14:22:36.635Z,77.48
2022-11-24T14:25:03.864Z,77.34
2022-11-24T14:27:38.582Z,77.21
2022-11-24T14:30:08.062Z,77.67
2022-11-24T14:32:34.601Z,76.87
2022-11-24T14:35:01.277Z,76.25
2022-11-24T14:37:27.820Z,75.41
2022-11-24T14:39:54.349Z,74.61
2022-11-24T14:42:24.017Z,74.96
2022-11-24T14:44:58.712Z,75.37
2022-11-24T14:47:36.256Z,76.43
2022-11-24T14:50:10.832Z,77.25
2022-11-24T14:52:45.674Z,77.36
2022-11-24T14:55:30.763Z,77.61
2022-11-24T14:57:58.342Z,77.73
2022-11-24T15:00:24.760Z,79.28
2022-11-24T15:03:07.770Z,79.45
2022-11-24T15:05:58.537Z,80.27
2022-11-24T15:08:28.635Z,80.20
2022-11-24T15:11:03.135Z,80.86
2022-11-24T15:13:37.045Z,81.47
2022-11-24T15:16:15.872Z,82.07
2022-11-24T15:18:55.032Z,82.73
2022-11-24T15:21:32.888Z,83.01
2022-11-24T15:24:19.115Z,83.05
2022-11-24T15:26:46.249Z,84.11
2022-11-24T15:29:13.516Z,84.42
2022-11-24T15:31:42.697Z,84.40
2022-11-24T15:34:14.174Z,85.05
2022-11-24T15:36:40.655Z,85.36
2022-11-24T15:39:07.190Z,85.27
2022-11-24T15:41:33.763Z,85.17
2022-11-24T15:44:00.288Z,85.51
2022-11-24T15:46:37.823Z,85.73
2022-11-24T15:49:05.188Z,85.93
2022-11-24T15:51:31.716Z,85.99
2022-11-24T15:54:01.075Z,86.40
2022-11-24T15:56:33.857Z,86.38
2022-11-24T15:59:01.217Z,86.43
2022-11-24T16:01:31.494Z,87.01
2022-11-24T16:03:58.180Z,87.10
2022-11-24T16:06:25.567Z,86.98
2022-11-24T16:08:55.612Z,87.39
2022-11-24T16:11:22.967Z,87.38
2022-11-24T16:13:52.979Z,87.16
2022-11-24T16:16:20.970Z,87.35
2022-11-24T16:18:47.510Z,87.75
2022-11-24T16:21:13.970Z,88.00
2022-11-24T16:23:40.500Z,87.86
2022-11-24T16:26:07.297Z,88.19
2022-11-24T16:28:33.791Z,87.77
2022-11-24T16:31:00.345Z,88.24
2022-11-24T16:33:29.109Z,87.90
2022-11-24T16:35:55.627Z,87.57
2022-11-24T16:38:22.113Z,87.53
2022-11-24T16:40:53.350Z,87.74
2022-11-24T16:43:20.197Z,87.41
2022-11-24T16:45:46.808Z,87.45
2022-11-24T16:48:13.339Z,87.42
2022-11-24T16:50:39.819Z,87.86
2022-11-24T16:53:06.307Z,87.44
2022-11-24T16:55:32.787Z,87.68
2022-11-24T16:57:59.191Z,87.98
2022-11-24T17:00:25.634Z,88.17
2022-11-24T17:02:52.131Z,88.20
2022-11-24T17:05:18.575Z,88.17
2022-11-24T17:07:45.062Z,88.28
2022-11-24T17:10:11.540Z,88.14
2022-11-24T17:12:38.073Z,87.70
2022-11-24T17:18:22.483Z,88.10
2022-11-24T17:20:38.689Z,88.41
2022-11-24T17:23:05.131Z,88.27
2022-11-24T17:25:32.815Z,88.45
2022-11-24T17:27:59.287Z,88.63
2022-11-24T17:30:25.703Z,88.51
2022-11-24T17:32:56.587Z,88.28
2022-11-24T17:35:23.690Z,88.03
2022-11-24T17:37:50.119Z,88.25
2022-11-24T17:40:34.290Z,88.16
2022-11-24T17:43:00.977Z,88.16
2022-11-24T17:45:28.904Z,88.25
2022-11-24T17:47:56.213Z,88.40
2022-11-24T17:50:25.936Z,87.96
2022-11-24T17:52:53.767Z,88.28
2022-11-24T17:55:20.311Z,88.31
2022-11-24T17:57:46.757Z,88.33
2022-11-24T18:00:13.870Z,88.15
2022-11-24T18:02:40.428Z,88.65
2022-11-24T18:05:07.197Z,88.32
2022-11-24T18:07:35.924Z,88.47
2022-11-24T18:10:02.373Z,88.61
2022-11-24T18:12:28.802Z,88.38
2022-11-24T18:14:55.300Z,88.40
2022-11-24T18:17:21.775Z,88.91
2022-11-24T18:19:48.172Z,88.47
2022-11-24T18:22:14.634Z,88.29
2022-11-24T18:24:41.211Z,88.34
2022-11-24T18:27:07.977Z,88.09
2022-11-24T18:29:34.460Z,88.14
2022-11-24T18:32:01.201Z,88.05
2022-11-24T18:34:27.635Z,88.34
2022-11-24T18:36:54.233Z,88.08
2022-11-24T18:39:20.910Z,88.27
2022-11-24T18:41:47.580Z,87.65
2022-11-24T18:44:14.117Z,87.46
2022-11-24T18:46:40.683Z,87.53
2022-11-24T18:49:07.587Z,87.79
2022-11-24T18:51:34.354Z,87.30
2022-11-24T18:54:02.906Z,87.17
2022-11-24T18:56:29.657Z,87.18
2022-11-24T18:58:56.805Z,87.17
2022-11-24T19:01:26.962Z,87.53
2022-11-24T19:03:55.932Z,87.09
2022-11-24T19:06:28.863Z,86.92
2022-11-24T19:08:55.849Z,87.01
2022-11-24T19:11:28.413Z,86.90
2022-11-24T19:13:56.477Z,86.75
2022-11-24T19:16:23.830Z,87.23
2022-11-24T19:18:54.047Z,87.05
2022-11-24T19:21:21.840Z,86.92
2022-11-24T19:23:49.185Z,86.80
2022-11-24T19:26:15.796Z,86.54
2022-11-24T19:28:42.273Z,86.79
2022-11-24T19:31:11.697Z,86.43
2022-11-24T19:33:39.378Z,86.58
2022-11-24T19:36:09.036Z,86.80
2022-11-24T19:38:35.575Z,86.67
2022-11-24T19:41:06.976Z,86.27
2022-11-24T19:43:34.104Z,86.38
2022-11-24T19:46:07.365Z,86.18
2022-11-24T19:48:36.448Z,86.64
2022-11-24T19:51:05.168Z,86.27
2022-11-24T19:53:32.724Z,86.58
2022-11-24T19:56:14.441Z,86.46
2022-11-24T19:58:41.356Z,86.46
2022-11-24T20:01:24.842Z,86.25
2022-11-24T20:03:58.907Z,86.43
2022-11-24T20:06:33.132Z,86.39
2022-11-24T20:09:00.580Z,86.65
2022-11-24T20:11:28.458Z,86.61
2022-11-24T20:13:55.565Z,86.42
2022-11-24T20:16:28.141Z,86.17
2022-11-24T20:18:56.588Z,86.22
2022-11-24T20:21:25.398Z,86.03
2022-11-24T20:23:55.307Z,86.30
2022-11-24T20:26:23.478Z,86.26
2022-11-24T20:28:51.596Z,86.67
2022-11-24T20:31:21.025Z,86.69
2022-11-24T20:33:47.624Z,86.80
2022-11-24T20:36:17.276Z,86.62
2022-11-24T20:38:45.165Z,86.39
2022-11-24T20:41:17.565Z,86.84
2022-11-24T20:43:45.038Z,87.12
2022-11-24T20:46:21.348Z,86.95
2022-11-24T20:48:47.939Z,86.52
2022-11-24T20:51:21.419Z,86.64
2022-11-24T20:53:48.927Z,86.33
2022-11-24T20:56:19.969Z,86.26
2022-11-24T20:58:46.640Z,86.63
2022-11-24T21:01:19.616Z,86.63
2022-11-24T21:03:47.246Z,86.61
2022-11-24T21:06:14.652Z,86.27
2022-11-24T21:08:42.374Z,86.10
2022-11-24T21:11:11.409Z,86.58
2022-11-24T21:13:39.328Z,86.50
2022-11-24T21:16:18.838Z,86.64
2022-11-24T21:18:47.508Z,86.22
2022-11-24T21:21:14.271Z,86.37
2022-11-24T21:23:40.942Z,86.49
2022-11-24T21:26:14.913Z,85.96
2022-11-24T21:28:44.236Z,86.31
2022-11-24T21:31:13.438Z,86.44
2022-11-24T21:33:41.882Z,86.18
2022-11-24T21:36:09.108Z,86.49
2022-11-24T21:38:35.688Z,87.00
2022-11-24T21:41:13.880Z,86.38
2022-11-24T21:43:40.424Z,86.65
2022-11-24T21:46:08.640Z,86.33
2022-11-24T21:48:36.992Z,86.61
2022-11-24T21:51:06.169Z,86.76
2022-11-24T21:53:35.675Z,86.93
2022-11-24T21:56:09.554Z,86.93
2022-11-24T21:58:36.556Z,86.68
2022-11-24T22:01:05.321Z,86.60
2022-11-24T22:03:32.166Z,86.55
2022-11-24T22:06:00.291Z,86.94
2022-11-24T22:08:28.710Z,86.62
2022-11-24T22:11:12.498Z,86.86
2022-11-24T22:13:39.856Z,86.99
2022-11-24T22:16:11.790Z,86.85
2022-11-24T22:18:40.617Z,87.05
2022-11-24T22:21:10.511Z,86.96
2022-11-24T22:23:37.267Z,87.42
2022-11-24T22:26:03.789Z,87.23
2022-11-24T22:28:35.206Z,87.46
2022-11-24T22:31:06.869Z,87.29
2022-11-24T22:33:33.755Z,87.24
2022-11-24T22:36:01.002Z,87.22
2022-11-24T22:38:28.507Z,87.51
2022-11-24T22:40:55.058Z,87.34
2022-11-24T22:43:23.058Z,87.28
2022-11-24T22:45:49.813Z,87.25
2022-11-24T22:48:16.374Z,87.47
2022-11-24T22:50:42.824Z,87.46
2022-11-24T22:53:09.306Z,87.46
2022-11-24T22:55:35.843Z,87.58
2022-11-24T22:58:02.348Z,87.50
2022-11-24T23:00:28.823Z,87.67
2022-11-24T23:02:55.362Z,87.38
2022-11-24T23:05:21.833Z,87.81
2022-11-24T23:07:48.350Z,87.59
2022-11-24T23:10:14.843Z,87.88
2022-11-24T23:12:41.247Z,87.58
2022-11-24T23:15:08.127Z,87.43
2022-11-24T23:17:34.577Z,87.90
2022-11-24T23:20:00.988Z,87.76
2022-11-24T23:22:27.476Z,88.07
2022-11-24T23:24:53.901Z,87.98
2022-11-24T23:27:20.425Z,88.40
2022-11-24T23:29:46.855Z,88.31
2022-11-24T23:32:13.240Z,88.74
2022-11-24T23:34:39.717Z,88.81
2022-11-24T23:37:06.214Z,89.27
2022-11-24T23:39:32.653Z,89.47
2022-11-24T23:41:59.064Z,89.95
2022-11-24T23:44:27.097Z,90.19
2022-11-24T23:46:53.529Z,90.78
2022-11-24T23:49:20.025Z,91.57
2022-11-24T23:51:46.840Z,92.40
2022-11-24T23:54:13.431Z,93.41
2022-11-24T23:56:39.836Z,94.61
2022-11-24T23:59:06.322Z,95.19
